createdAt,value
2019-04-20T00:00:59.909Z,4.20
2019-04-20T00:03:50.689Z,4.40
2019-04-20T00:06:47.949Z,4.85
2019-04-20T00:09:34.605Z,4.40
2019-04-20T00:12:34.340Z,4.28
2019-04-20T00:15:11.284Z,4.15
2019-04-20T00:18:04.386Z,4.58
2019-04-20T00:21:05.521Z,5.00
2019-04-20T00:23:54.878Z,4.55
2019-04-20T00:27:09.227Z,4.87
2019-04-20T00:29:49.381Z,4.40
2019-04-20T00:32:44.019Z,4.00
2019-04-20T00:35:14.737Z,4.20
2019-04-20T00:38:03.514Z,4.20
2019-04-20T00:40:58.329Z,3.83
2019-04-20T00:43:44.161Z,4.37
2019-04-20T00:46:48.621Z,4.60
2019-04-20T00:49:41.823Z,4.23
2019-04-20T00:52:41.226Z,3.70
2019-04-20T00:55:04.223Z,3.27
2019-04-20T00:57:59.779Z,4.40
2019-04-20T01:01:07.176Z,4.90
2019-04-20T01:03:49.680Z,4.67
2019-04-20T01:07:01.219Z,4.80
2019-04-20T01:10:09.204Z,4.75
2019-04-20T01:13:06.059Z,4.60
2019-04-20T01:15:57.562Z,5.00
2019-04-20T01:18:39.027Z,4.70
2019-04-20T01:21:30.402Z,5.17
2019-04-20T01:24:24.770Z,4.50
2019-04-20T01:27:25.855Z,5.47
2019-04-20T01:30:07.485Z,5.50
2019-04-20T01:33:00.168Z,5.40
2019-04-20T01:35:53.168Z,5.00
2019-04-20T01:38:44.765Z,5.20
2019-04-20T01:41:20.328Z,4.60
2019-04-20T01:44:09.308Z,4.60
2019-04-20T01:47:01.218Z,4.97
2019-04-20T01:49:54.634Z,5.20
2019-04-20T01:52:50.807Z,4.80
2019-04-20T01:55:49.368Z,5.10
2019-04-20T01:58:58.171Z,5.30
2019-04-20T02:02:03.194Z,4.90
2019-04-20T02:04:53.776Z,4.95
2019-04-20T02:07:47.567Z,5.27
2019-04-20T02:10:41.682Z,5.10
2019-04-20T02:13:26.443Z,5.03
2019-04-20T02:16:22.872Z,5.37
2019-04-20T02:19:18.705Z,5.00
2019-04-20T02:22:07.656Z,5.70
2019-04-20T02:24:44.831Z,5.22
2019-04-20T02:27:38.643Z,5.13
2019-04-20T02:31:04.408Z,5.70
2019-04-20T02:33:50.531Z,5.40
2019-04-20T02:37:09.611Z,5.75
2019-04-20T02:40:12.398Z,5.50
2019-04-20T02:45:44.217Z,5.70
2019-04-20T02:48:39.395Z,5.75
2019-04-20T02:51:39.374Z,5.40
2019-04-20T02:54:26.510Z,5.45
2019-04-20T03:00:03.273Z,5.12
2019-04-20T03:02:41.237Z,5.47
2019-04-20T03:05:30.823Z,5.10
2019-04-20T03:08:22.218Z,5.40
2019-04-20T03:11:49.880Z,5.47
2019-04-20T03:14:24.006Z,5.10
2019-04-20T03:17:22.601Z,5.15
2019-04-20T03:20:03.510Z,5.15
2019-04-20T03:23:36.179Z,5.73
2019-04-20T03:26:17.622Z,5.70
2019-04-20T03:29:16.713Z,4.95
2019-04-20T03:33:00.177Z,5.30
2019-04-20T03:35:17.499Z,5.45
2019-04-20T03:37:58.703Z,5.70
2019-04-20T03:40:40.173Z,5.25
2019-04-20T03:43:20.194Z,5.10
2019-04-20T03:46:12.763Z,5.50
2019-04-20T03:49:20.064Z,5.40
2019-04-20T03:52:34.273Z,5.57
2019-04-20T03:55:36.678Z,5.00
2019-04-20T03:58:33.502Z,4.75
2019-04-20T04:02:08.731Z,5.30
2019-04-20T04:04:51.782Z,5.42
2019-04-20T04:07:32.317Z,5.00
2019-04-20T04:10:50.315Z,5.08
2019-04-20T04:13:24.943Z,5.47
2019-04-20T04:16:17.288Z,5.30
2019-04-20T04:19:13.043Z,5.47
2019-04-20T04:22:23.532Z,5.17
2019-04-20T04:25:12.336Z,5.30
2019-04-20T04:28:09.764Z,5.20
2019-04-20T04:30:59.446Z,5.20
2019-04-20T04:36:59.363Z,5.20
2019-04-20T04:39:49.051Z,5.17
2019-04-20T04:42:45.542Z,5.22
2019-04-20T04:45:13.934Z,5.10
2019-04-20T04:48:06.759Z,5.30
2019-04-20T04:51:02.449Z,5.50
2019-04-20T04:53:57.530Z,5.62
2019-04-20T04:56:54.628Z,6.22
2019-04-20T04:59:44.567Z,5.50
2019-04-20T05:02:39.317Z,5.50
2019-04-20T05:06:03.511Z,6.00
2019-04-20T05:08:43.599Z,6.03
2019-04-20T05:11:27.921Z,5.20
2019-04-20T05:14:24.397Z,5.90
2019-04-20T05:17:48.325Z,6.15
2019-04-20T05:20:41.716Z,6.40
2019-04-20T05:23:41.392Z,5.70
2019-04-20T05:27:01.738Z,5.97
2019-04-20T05:29:31.905Z,6.10
2019-04-20T05:32:29.467Z,6.40
2019-04-20T05:35:44.416Z,6.10
2019-04-20T05:38:43.131Z,6.45
2019-04-20T05:41:26.532Z,6.95
2019-04-20T05:44:25.791Z,6.42
2019-04-20T05:47:21.751Z,6.80
2019-04-20T05:50:04.974Z,6.50
2019-04-20T05:53:22.101Z,7.10
2019-04-20T05:56:02.618Z,5.78
2019-04-20T05:58:56.627Z,5.20
2019-04-20T06:01:52.706Z,6.20
2019-04-20T06:04:54.588Z,5.80
2019-04-20T10:47:41.076Z,4.23
2019-04-20T10:50:49.356Z,4.85
2019-04-20T10:53:38.323Z,4.47
2019-04-20T10:56:27.539Z,4.37
2019-04-20T10:59:37.050Z,3.70
2019-04-20T11:02:26.009Z,4.60
2019-04-20T11:05:14.788Z,4.07
2019-04-20T11:08:04.345Z,3.37
2019-04-20T11:11:03.493Z,3.90
2019-04-20T11:13:43.824Z,4.00
2019-04-20T11:16:32.774Z,3.60
2019-04-20T11:19:23.232Z,3.93
2019-04-20T11:22:32.483Z,3.93
2019-04-20T11:25:22.082Z,5.43
2019-04-20T11:28:12.340Z,5.60
2019-04-20T11:31:01.912Z,4.37
2019-04-20T11:33:56.261Z,4.83
2019-04-20T11:36:45.452Z,4.90
2019-04-20T11:39:43.124Z,4.00
2019-04-20T11:42:47.934Z,3.97
2019-04-20T11:45:36.511Z,4.67
2019-04-20T11:48:39.895Z,4.17
2019-04-20T11:51:29.809Z,4.90
2019-04-20T11:54:34.546Z,5.20
2019-04-20T11:57:43.142Z,4.30
2019-04-20T12:00:53.939Z,3.90
2019-04-20T12:03:46.289Z,4.03
2019-04-20T12:06:25.227Z,4.13
2019-04-20T12:09:22.449Z,3.87
2019-04-20T12:12:40.019Z,4.60
2019-04-20T12:15:20.132Z,3.80
2019-04-20T12:18:13.753Z,4.30
2019-04-20T12:21:05.377Z,4.43
2019-04-20T12:23:56.327Z,4.30
2019-04-20T12:26:46.892Z,4.00
2019-04-20T12:29:35.944Z,4.80
2019-04-20T12:32:29.534Z,4.70
2019-04-20T12:35:14.579Z,4.70
2019-04-20T12:38:03.457Z,4.67
2019-04-20T12:41:03.136Z,4.60
2019-04-20T12:43:51.867Z,4.17
2019-04-20T12:46:41.486Z,3.77
2019-04-20T12:49:31.632Z,3.73
2019-04-20T12:52:24.146Z,4.23
2019-04-20T12:55:14.302Z,4.73
2019-04-20T12:58:05.622Z,3.90
2019-04-20T13:00:54.723Z,4.70
2019-04-20T13:03:43.742Z,4.60
2019-04-20T13:06:34.076Z,5.07
2019-04-20T13:09:38.812Z,4.73
2019-04-20T13:13:05.044Z,4.93
2019-04-20T13:16:12.672Z,4.93
2019-04-20T13:19:03.848Z,4.87
2019-04-20T13:21:54.704Z,5.93
2019-04-20T13:24:43.636Z,6.13
2019-04-20T13:27:32.775Z,4.50
2019-04-20T13:30:23.754Z,5.10
2019-04-20T13:33:31.615Z,5.00
2019-04-20T13:36:22.052Z,5.20
2019-04-20T13:39:10.266Z,4.60
2019-04-20T13:42:12.109Z,4.60
2019-04-20T13:44:54.938Z,4.17
2019-04-20T13:47:45.185Z,5.57
2019-04-20T13:50:51.850Z,5.63
2019-04-20T13:53:41.305Z,5.67
2019-04-20T13:56:30.168Z,4.80
2019-04-20T13:59:53.238Z,4.40
2019-04-20T14:02:46.826Z,4.40
2019-04-20T14:05:35.478Z,5.17
2019-04-20T14:08:27.429Z,5.03
2019-04-20T14:11:17.698Z,6.90
2019-04-20T14:14:08.271Z,4.20
2019-04-20T14:16:57.392Z,4.10
2019-04-20T14:19:47.388Z,4.70
2019-04-20T14:22:39.033Z,4.60
2019-04-20T14:25:29.069Z,3.77
2019-04-20T14:28:20.929Z,4.27
2019-04-20T14:31:09.945Z,4.97
2019-04-20T14:33:59.133Z,4.30
2019-04-20T14:36:48.803Z,4.03
2019-04-20T14:39:46.035Z,4.47
2019-04-20T14:42:42.331Z,4.43
2019-04-20T14:45:28.946Z,5.63
2019-04-20T14:48:18.611Z,5.07
2019-04-20T14:51:07.748Z,4.80
2019-04-20T14:53:56.271Z,5.53
2019-04-20T14:56:45.456Z,5.10
2019-04-20T14:59:37.868Z,4.60
2019-04-20T15:02:30.200Z,4.37
2019-04-20T15:05:19.411Z,4.70
2019-04-20T15:08:08.948Z,4.33
2019-04-20T15:10:58.810Z,5.00
2019-04-20T15:13:48.945Z,4.50
2019-04-20T15:16:38.565Z,4.03
2019-04-20T15:19:47.523Z,3.90
2019-04-20T15:22:43.454Z,4.40
2019-04-20T15:25:32.108Z,4.27
2019-04-20T15:28:20.638Z,4.40
2019-04-20T15:31:10.075Z,3.90
2019-04-20T15:33:59.360Z,4.10
2019-04-20T15:36:47.478Z,4.47
2019-04-20T15:39:37.032Z,4.37
2019-04-20T15:42:27.508Z,3.63
2019-04-20T15:45:17.012Z,3.70
2019-04-20T15:48:06.346Z,4.10
2019-04-20T15:50:56.103Z,4.00
2019-04-20T15:53:45.534Z,3.80
2019-04-20T15:56:35.364Z,4.50
2019-04-20T15:59:24.406Z,3.73
2019-04-20T16:02:31.581Z,3.90
2019-04-20T16:05:51.511Z,3.30
2019-04-20T16:08:42.189Z,3.23
2019-04-20T16:11:31.354Z,3.50
2019-04-20T16:14:21.623Z,3.40
2019-04-20T16:17:12.346Z,4.17
2019-04-20T16:20:07.924Z,3.70
2019-04-20T16:22:50.442Z,3.87
2019-04-20T16:25:59.548Z,3.83
2019-04-20T16:28:48.272Z,3.40
2019-04-20T16:31:36.766Z,4.17
2019-04-20T16:34:25.474Z,3.70
2019-04-20T16:37:14.793Z,3.90
2019-04-20T16:40:05.713Z,3.57
2019-04-20T16:42:54.354Z,3.30
2019-04-20T16:45:43.588Z,3.20
2019-04-20T16:48:32.319Z,3.83
2019-04-20T16:51:21.107Z,3.90
2019-04-20T16:54:10.124Z,4.15
2019-04-20T16:57:00.410Z,3.30
2019-04-20T16:59:52.987Z,3.70
2019-04-20T17:02:40.400Z,3.50
2019-04-20T17:05:29.673Z,3.60
2019-04-20T17:08:18.750Z,2.87
2019-04-20T17:11:07.887Z,3.57
2019-04-20T17:13:59.854Z,2.70
2019-04-20T17:16:46.922Z,3.17
2019-04-20T17:19:37.395Z,3.33
2019-04-20T17:22:29.718Z,3.60
2019-04-20T17:25:19.754Z,3.20
2019-04-20T17:28:26.854Z,3.33
2019-04-20T17:31:27.223Z,3.00
2019-04-20T17:34:36.154Z,3.43
2019-04-20T17:37:08.816Z,3.87
2019-04-20T17:40:21.000Z,3.27
2019-04-20T17:42:59.054Z,3.27
2019-04-20T17:45:49.771Z,3.20
2019-04-20T17:48:39.929Z,3.40
2019-04-20T17:51:39.648Z,3.03
2019-04-20T17:54:23.449Z,3.50
2019-04-20T17:57:13.002Z,3.00
2019-04-20T18:00:12.149Z,3.23
2019-04-20T18:03:14.807Z,3.10
2019-04-20T18:06:12.699Z,3.53
2019-04-20T18:08:57.812Z,3.00
2019-04-20T18:11:40.325Z,2.77
2019-04-20T18:14:37.431Z,2.97
2019-04-20T18:17:56.275Z,2.80
2019-04-20T18:20:45.122Z,3.10
2019-04-20T18:23:38.442Z,3.60
2019-04-20T18:26:45.354Z,3.87
2019-04-20T18:29:37.252Z,4.00
2019-04-20T18:32:15.545Z,4.80
2019-04-20T18:35:10.417Z,4.37
2019-04-20T18:38:05.622Z,4.50
2019-04-20T18:40:56.007Z,4.50
2019-04-20T18:43:44.769Z,4.33
2019-04-20T18:46:55.537Z,4.83
2019-04-20T18:49:35.087Z,4.73
2019-04-20T18:52:11.576Z,9.00
2019-04-20T18:55:01.705Z,10.83
2019-04-20T18:57:50.969Z,12.40
2019-04-20T19:00:44.467Z,15.30
2019-04-20T19:03:35.754Z,16.80
2019-04-20T19:06:21.248Z,16.70
2019-04-20T19:09:16.750Z,17.90
2019-04-20T19:12:03.901Z,19.05
2019-04-20T19:15:12.067Z,14.80
2019-04-20T19:18:06.303Z,14.20
2019-04-20T19:20:55.071Z,12.43
2019-04-20T19:23:53.482Z,11.00
2019-04-20T19:26:34.346Z,10.40
2019-04-20T19:29:34.408Z,8.10
2019-04-20T19:32:30.269Z,8.33
2019-04-20T19:35:14.527Z,7.50
2019-04-20T19:38:06.354Z,6.33
2019-04-20T19:40:55.887Z,6.97
2019-04-20T19:43:49.987Z,6.50
2019-04-20T19:47:01.628Z,5.53
2019-04-20T19:49:27.682Z,4.50
2019-04-20T19:52:30.917Z,4.73
2019-04-20T19:55:14.275Z,4.53
2019-04-20T19:57:59.101Z,4.30
2019-04-20T20:00:50.476Z,4.83
2019-04-20T20:03:37.662Z,4.33
2019-04-20T20:06:32.956Z,4.07
2019-04-20T20:09:18.206Z,4.17
2019-04-20T20:12:12.596Z,4.43
2019-04-20T20:14:57.741Z,3.90
2019-04-20T20:18:06.722Z,5.00
2019-04-20T20:20:57.767Z,4.80
2019-04-20T20:23:27.932Z,4.80
2019-04-20T20:26:23.050Z,5.50
2019-04-20T20:29:17.011Z,5.20
2019-04-20T20:32:13.270Z,5.60
2019-04-20T20:34:56.143Z,6.03
2019-04-20T20:37:45.724Z,6.50
2019-04-20T20:40:32.712Z,6.40
2019-04-20T20:43:30.624Z,5.90
2019-04-20T20:46:19.692Z,5.17
2019-04-20T20:49:16.201Z,5.70
2019-04-20T20:52:06.825Z,6.17
2019-04-20T20:54:49.760Z,5.50
2019-04-20T20:57:40.908Z,5.37
2019-04-20T21:00:34.409Z,5.17
2019-04-20T21:03:20.390Z,5.87
2019-04-20T21:06:00.554Z,5.33
2019-04-20T21:08:53.727Z,5.30
2019-04-20T21:11:40.199Z,5.90
2019-04-20T21:14:31.531Z,5.20
2019-04-20T21:17:23.709Z,4.70
2019-04-20T21:20:20.396Z,5.20
2019-04-20T21:23:15.362Z,4.97
2019-04-20T21:26:12.748Z,5.20
2019-04-20T21:28:59.657Z,5.23
2019-04-20T21:31:56.826Z,4.97
2019-04-20T21:34:44.553Z,4.77
2019-04-20T21:37:29.024Z,5.37
2019-04-20T21:40:27.751Z,4.80
2019-04-20T21:43:09.495Z,5.97
2019-04-20T21:46:03.201Z,5.43
2019-04-20T21:48:59.527Z,5.20
2019-04-20T21:51:49.204Z,6.83
2019-04-20T21:54:29.836Z,9.90
2019-04-20T21:57:20.028Z,14.70
2019-04-20T22:00:25.102Z,13.87
2019-04-20T22:03:09.864Z,13.00
2019-04-20T22:06:04.910Z,10.68
2019-04-20T22:08:59.859Z,8.70
2019-04-20T22:11:45.622Z,9.50
2019-04-20T22:14:35.651Z,7.60
2019-04-20T22:17:28.596Z,7.67
2019-04-20T22:20:23.263Z,8.57
2019-04-20T22:23:16.818Z,8.27
2019-04-20T22:26:10.340Z,7.10
2019-04-20T22:28:45.568Z,8.87
2019-04-20T22:31:35.978Z,8.77
2019-04-20T22:34:28.088Z,9.73
2019-04-20T22:37:22.979Z,9.50
2019-04-20T22:40:06.956Z,9.50
2019-04-20T22:43:00.120Z,8.70
2019-04-20T22:45:52.027Z,8.67
2019-04-20T22:48:51.038Z,9.27
2019-04-20T22:51:39.916Z,9.00
2019-04-20T22:54:35.620Z,10.23
2019-04-20T22:57:19.330Z,10.83
2019-04-20T23:00:03.485Z,10.30
2019-04-20T23:02:49.070Z,10.53
2019-04-20T23:05:38.639Z,10.07
2019-04-20T23:08:26.974Z,8.90
2019-04-20T23:11:21.611Z,9.70
2019-04-20T23:14:06.561Z,9.40
2019-04-20T23:16:57.381Z,10.03
2019-04-20T23:19:49.409Z,9.73
2019-04-20T23:22:40.881Z,11.65
2019-04-20T23:25:27.099Z,10.27
2019-04-20T23:28:18.014Z,11.30
2019-04-20T23:31:11.719Z,9.83
2019-04-20T23:33:56.271Z,11.30
2019-04-20T23:36:48.535Z,11.50
2019-04-20T23:39:37.356Z,10.43
2019-04-20T23:42:34.890Z,10.67
2019-04-20T23:45:52.368Z,11.20
2019-04-20T23:48:48.089Z,11.40
2019-04-20T23:52:00.682Z,10.83
2019-04-20T23:54:33.148Z,10.77
2019-04-20T23:57:19.828Z,10.53
